Time;durP1;ratioP1;P1;durP2;ratioP2;P2;SDS_P1;SDS_P2;PMS_P1;PMS_P2;Temp;Humidity;BMP_temperature;BMP_pressure;BME280_temperature;BME280_humidity;BME280_pressure;Samples;Min_cycle;Max_cycle;Signal;HPM_P1;HPM_P2
2022/05/23 00:00:13;;;;;;;1.00;0.10;;;26.10;44.50;;;;;;5108730;28;20127;-59
2022/05/23 00:02:40;;;;;;;0.82;0.17;;;26.10;44.60;;;;;;5108557;28;20040;-58
2022/05/23 00:05:08;;;;;;;0.65;0.10;;;26.10;44.50;;;;;;5107867;28;20398;-59
2022/05/23 00:07:40;;;;;;;0.63;0.10;;;26.10;44.50;;;;;;5107469;28;20484;-59
2022/05/23 00:10:10;;;;;;;1.52;0.10;;;26.10;45.20;;;;;;5106313;28;20512;-57
2022/05/23 00:12:37;;;;;;;2.33;1.00;;;26.10;44.60;;;;;;5083852;28;20092;-59
2022/05/23 00:15:06;;;;;;;1.08;0.38;;;26.10;44.50;;;;;;5105679;28;20439;-58
2022/05/23 00:17:33;;;;;;;2.53;0.13;;;26.10;44.50;;;;;;5107625;28;20042;-59
2022/05/23 00:20:00;;;;;;;3.55;0.45;;;26.00;44.40;;;;;;5103570;28;20537;-59
2022/05/23 00:22:27;;;;;;;0.10;0.10;;;26.00;44.40;;;;;;5107241;28;20519;-60
2022/05/23 00:24:55;;;;;;;1.20;0.10;;;26.00;44.50;;;;;;5107314;28;20113;-59
2022/05/23 00:27:23;;;;;;;0.82;0.20;;;26.00;44.50;;;;;;5106423;28;20040;-59
2022/05/23 00:29:51;;;;;;;1.88;0.10;;;26.00;44.50;;;;;;5109425;28;20036;-59
2022/05/23 00:37:53;;;;;;;1.92;0.13;;;26.00;44.70;;;;;;5096765;28;20516;-58
2022/05/23 00:40:35;;;;;;;1.17;0.10;;;25.90;44.70;;;;;;5106295;28;20046;-59
2022/05/23 00:43:16;;;;;;;0.98;0.15;;;25.90;44.70;;;;;;5101754;28;20571;-60
2022/05/23 00:45:49;;;;;;;0.20;0.15;;;25.90;44.70;;;;;;5103444;28;20067;-59
2022/05/23 00:48:18;;;;;;;1.00;0.45;;;25.90;44.80;;;;;;5102988;28;20138;-58
2022/05/23 00:50:50;;;;;;;1.55;0.10;;;25.90;44.90;;;;;;5106991;28;20139;-57
2022/05/23 00:53:28;;;;;;;1.20;0.10;;;25.90;44.90;;;;;;5085584;27;20108;-57
2022/05/23 00:55:58;;;;;;;0.25;0.15;;;25.90;44.90;;;;;;5117702;27;20115;-56
2022/05/23 00:58:30;;;;;;;1.00;0.20;;;25.80;44.90;;;;;;5117539;27;20047;-58
2022/05/23 01:01:01;;;;;;;0.80;0.20;;;25.80;44.80;;;;;;5100880;28;20063;-59
2022/05/23 01:03:30;;;;;;;2.97;0.10;;;25.80;44.80;;;;;;5090847;28;20047;-59
2022/05/23 01:05:57;;;;;;;0.52;0.52;;;25.80;44.80;;;;;;5124147;27;20088;-59
2022/05/23 01:08:26;;;;;;;0.47;0.10;;;25.80;45.40;;;;;;5093397;28;20086;-59
2022/05/23 01:10:54;;;;;;;0.52;0.35;;;25.80;44.90;;;;;;5092751;27;20048;-59
2022/05/23 01:13:22;;;;;;;1.40;0.10;;;25.80;44.90;;;;;;5089411;27;20065;-59
2022/05/23 01:15:50;;;;;;;2.30;0.20;;;25.80;44.90;;;;;;5114440;27;20468;-59
2022/05/23 01:18:19;;;;;;;1.17;0.10;;;25.70;44.90;;;;;;5091181;27;20039;-59
2022/05/23 01:20:47;;;;;;;0.88;0.10;;;25.80;44.90;;;;;;5102530;28;20036;-60
2022/05/23 01:23:25;;;;;;;0.40;0.10;;;25.70;44.90;;;;;;5112019;27;20043;-59
2022/05/23 01:26:12;;;;;;;0.63;0.10;;;25.70;44.90;;;;;;5090943;28;20036;-59
2022/05/23 01:28:46;;;;;;;1.55;0.20;;;25.70;44.90;;;;;;5092223;28;20444;-60
2022/05/23 01:31:28;;;;;;;0.20;0.10;;;25.70;44.90;;;;;;5085717;27;20039;-60
2022/05/23 01:33:57;;;;;;;1.00;0.10;;;25.70;44.90;;;;;;5122095;27;20039;-59
2022/05/23 01:36:24;;;;;;;1.23;0.10;;;25.70;44.80;;;;;;5089771;28;20118;-60
2022/05/23 01:38:51;;;;;;;1.35;0.10;;;25.70;44.80;;;;;;5098422;28;20048;-60
2022/05/23 01:41:25;;;;;;;0.30;0.10;;;25.60;44.70;;;;;;5090108;28;20048;-61
2022/05/23 01:43:59;;;;;;;0.20;0.10;;;25.60;44.70;;;;;;5092695;28;20044;-60
2022/05/23 01:46:32;;;;;;;0.40;0.10;;;25.60;44.70;;;;;;5091372;27;20046;-60
2022/05/23 01:49:21;;;;;;;1.52;0.10;;;25.60;44.70;;;;;;5102015;28;20511;-59
2022/05/23 01:51:48;;;;;;;1.13;0.10;;;25.60;44.80;;;;;;5088666;28;20089;-57
2022/05/23 01:54:17;;;;;;;1.27;0.10;;;25.60;44.80;;;;;;5106015;28;20051;-56
2022/05/23 01:56:50;;;;;;;1.65;0.10;;;25.60;44.80;;;;;;5095744;28;20078;-57
2022/05/23 02:02:06;;;;;;;0.10;0.10;;;25.60;44.80;;;;;;5026202;28;20449;-57
2022/05/23 02:04:37;;;;;;;0.22;0.10;;;25.60;44.80;;;;;;5026518;28;20056;-59
2022/05/23 02:07:05;;;;;;;2.13;0.20;;;25.60;44.80;;;;;;5041158;28;20461;-59
2022/05/23 02:09:35;;;;;;;2.25;0.10;;;25.60;44.90;;;;;;5023197;28;20037;-59
2022/05/23 02:12:22;;;;;;;0.85;0.10;;;25.60;45.00;;;;;;5025610;28;20045;-59
2022/05/23 02:14:51;;;;;;;1.45;0.10;;;25.50;44.90;;;;;;5024340;28;20153;-59
2022/05/23 02:17:38;;;;;;;0.47;0.10;;;25.50;44.90;;;;;;5029274;28;20057;-57
2022/05/23 02:20:07;;;;;;;0.50;0.25;;;25.50;44.90;;;;;;5042971;28;20152;-56
2022/05/23 02:22:35;;;;;;;0.10;0.10;;;25.50;44.90;;;;;;5041805;28;20049;-57
2022/05/23 02:25:28;;;;;;;0.70;0.10;;;25.50;44.90;;;;;;5038991;28;20053;-56
2022/05/23 02:27:57;;;;;;;3.80;0.10;;;25.50;45.00;;;;;;5023970;28;20060;-58
2022/05/23 02:30:30;;;;;;;0.40;0.10;;;25.50;45.10;;;;;;5026778;28;20072;-57
2022/05/23 02:32:57;;;;;;;1.10;0.10;;;25.50;45.10;;;;;;5045838;28;20049;-59
2022/05/23 02:35:24;;;;;;;0.35;0.20;;;25.50;45.20;;;;;;5044151;28;20960;-58
2022/05/23 02:37:53;;;;;;;3.40;0.65;;;25.50;45.20;;;;;;5029479;28;20052;-56
2022/05/23 02:40:22;;;;;;;3.35;0.10;;;25.50;45.20;;;;;;5095057;27;20044;-58
2022/05/23 02:42:50;;;;;;;1.95;0.10;;;25.50;45.20;;;;;;5100014;27;20027;-56
2022/05/23 02:45:19;;;;;;;0.70;0.10;;;25.40;45.10;;;;;;5110607;27;20066;-57
2022/05/23 02:47:49;;;;;;;2.47;0.10;;;25.50;45.20;;;;;;5125803;27;20517;-58
2022/05/23 02:50:17;;;;;;;0.40;0.10;;;25.40;45.10;;;;;;5111365;27;20126;-59
2022/05/23 02:52:47;;;;;;;1.45;0.40;;;25.50;45.30;;;;;;5115193;27;20089;-57
2022/05/23 02:55:19;;;;;;;0.32;0.20;;;25.40;45.20;;;;;;5091256;28;20048;-58
2022/05/23 02:57:46;;;;;;;2.20;0.40;;;25.40;45.20;;;;;;5091507;28;20031;-58
2022/05/23 03:00:21;;;;;;;0.60;0.10;;;25.40;45.30;;;;;;5091943;28;20494;-58
2022/05/23 03:03:02;;;;;;;0.50;0.10;;;25.40;45.30;;;;;;5090513;28;20044;-58
2022/05/23 03:05:40;;;;;;;3.80;0.10;;;25.40;45.30;;;;;;5092125;28;20550;-57
2022/05/23 03:08:09;;;;;;;3.25;0.10;;;25.40;45.30;;;;;;5090950;28;20043;-58
2022/05/23 03:10:36;;;;;;;0.30;0.30;;;25.40;45.30;;;;;;5090954;28;20044;-58
2022/05/23 03:13:03;;;;;;;1.77;0.20;;;25.40;45.30;;;;;;5091111;28;20050;-57
2022/05/23 03:15:32;;;;;;;0.40;0.30;;;25.40;45.30;;;;;;5109281;28;20038;-57
2022/05/23 03:18:00;;;;;;;0.85;0.10;;;25.30;45.40;;;;;;5092807;28;20130;-58
2022/05/23 03:20:27;;;;;;;0.57;0.57;;;25.40;45.50;;;;;;5090413;28;20508;-58
2022/05/23 03:28:26;;;;;;;0.10;0.10;;;25.30;45.60;;;;;;5086782;28;20047;-59
2022/05/23 03:30:54;;;;;;;0.32;0.20;;;25.30;45.70;;;;;;5091140;28;20085;-58
2022/05/23 03:33:22;;;;;;;0.52;0.30;;;25.30;45.70;;;;;;5090759;28;20051;-59
2022/05/23 03:35:49;;;;;;;0.50;0.10;;;25.30;45.80;;;;;;5092400;28;20047;-58
2022/05/23 03:38:17;;;;;;;0.17;0.17;;;25.30;45.90;;;;;;5090164;28;20135;-57
2022/05/23 03:40:45;;;;;;;3.58;0.20;;;25.20;46.00;;;;;;5108653;28;20054;-60
2022/05/23 03:43:14;;;;;;;1.98;0.20;;;25.20;46.10;;;;;;5090633;28;20040;-59
2022/05/23 03:45:42;;;;;;;2.08;0.10;;;25.20;46.10;;;;;;5090741;28;20841;-55
2022/05/23 03:48:13;;;;;;;0.15;0.10;;;25.20;46.30;;;;;;5091022;28;20043;-58
2022/05/23 03:50:41;;;;;;;0.90;0.35;;;25.20;46.40;;;;;;5091852;28;20046;-56
2022/05/23 03:53:08;;;;;;;3.80;0.20;;;25.20;46.50;;;;;;5108486;28;20128;-57
2022/05/23 03:55:40;;;;;;;1.05;0.10;;;25.20;46.60;;;;;;5090100;28;20040;-57
2022/05/23 03:58:16;;;;;;;0.65;0.20;;;25.20;46.80;;;;;;5087719;28;20222;-56
2022/05/23 04:00:49;;;;;;;0.20;0.10;;;25.20;46.80;;;;;;5089853;28;20036;-55
2022/05/23 04:03:17;;;;;;;0.25;0.10;;;25.20;47.00;;;;;;5090117;28;20535;-55
2022/05/23 04:05:44;;;;;;;0.28;0.10;;;25.20;47.10;;;;;;5089266;28;20047;-60
2022/05/23 04:08:28;;;;;;;2.63;0.25;;;25.10;47.10;;;;;;5089921;28;20082;-60
2022/05/23 04:10:59;;;;;;;0.45;0.10;;;25.10;47.80;;;;;;5089678;28;20509;-59
2022/05/23 04:13:26;;;;;;;1.48;0.50;;;25.10;47.30;;;;;;5108088;28;20521;-59
2022/05/23 04:15:53;;;;;;;1.15;0.10;;;25.10;47.40;;;;;;5089745;28;20412;-58
2022/05/23 04:18:22;;;;;;;0.32;0.32;;;25.10;47.40;;;;;;5107620;28;20048;-59
2022/05/23 04:20:52;;;;;;;1.38;0.30;;;25.10;47.50;;;;;;5084452;28;20040;-59
2022/05/23 04:23:25;;;;;;;0.30;0.20;;;25.00;47.40;;;;;;5089593;28;20092;-59
2022/05/23 04:25:52;;;;;;;1.30;0.10;;;25.00;47.50;;;;;;5084424;28;20048;-59
2022/05/23 04:28:21;;;;;;;1.08;0.10;;;25.00;48.20;;;;;;5089207;28;20419;-59
2022/05/23 04:30:48;;;;;;;0.10;0.10;;;25.00;47.80;;;;;;5089922;28;20046;-59
2022/05/23 04:36:08;;;;;;;0.63;0.63;;;25.00;48.10;;;;;;5090298;28;20054;-59
2022/05/23 04:38:40;;;;;;;1.38;0.10;;;25.00;48.20;;;;;;5087338;28;20036;-59
2022/05/23 04:41:09;;;;;;;1.65;0.10;;;25.00;48.40;;;;;;5082709;28;20040;-59
2022/05/23 04:43:50;;;;;;;1.08;0.10;;;25.00;48.40;;;;;;5080473;28;20142;-59
2022/05/23 04:46:23;;;;;;;0.85;0.10;;;25.00;48.50;;;;;;5089607;28;20740;-59
2022/05/23 04:52:02;;;;;;;2.70;0.20;;;25.00;48.70;;;;;;5082637;28;20036;-59
2022/05/23 04:54:36;;;;;;;0.73;0.10;;;25.00;48.80;;;;;;5109562;27;20048;-59
2022/05/23 04:57:07;;;;;;;0.50;0.10;;;25.00;48.90;;;;;;5097735;27;20051;-58
2022/05/23 04:59:36;;;;;;;2.05;0.17;;;25.00;49.00;;;;;;5112000;27;20052;-58
2022/05/23 05:02:05;;;;;;;0.30;0.10;;;25.00;49.00;;;;;;5111436;27;20042;-57
2022/05/23 05:04:34;;;;;;;0.20;0.10;;;24.90;48.90;;;;;;5097341;27;20070;-57
2022/05/23 05:07:02;;;;;;;0.35;0.10;;;24.90;49.40;;;;;;5102366;27;20114;-56
2022/05/23 05:09:31;;;;;;;0.30;0.10;;;24.90;49.10;;;;;;5101946;27;20052;-56
2022/05/23 05:12:08;;;;;;;1.50;0.63;;;25.00;49.30;;;;;;5106195;27;20043;-56
2022/05/23 05:14:40;;;;;;;2.38;0.73;;;24.90;49.30;;;;;;5116584;27;20099;-57
2022/05/23 05:17:09;;;;;;;3.13;0.13;;;24.90;49.40;;;;;;5104896;27;20043;-57
2022/05/23 05:19:39;;;;;;;0.30;0.30;;;24.90;49.40;;;;;;5106309;27;20508;-57
2022/05/23 05:22:36;;;;;;;0.93;0.30;;;24.90;49.40;;;;;;5065635;28;20064;-56
2022/05/23 05:25:26;;;;;;;0.20;0.10;;;24.90;49.30;;;;;;5060102;28;20123;-55
2022/05/23 05:28:09;;;;;;;0.95;0.30;;;24.90;49.40;;;;;;5051206;28;20051;-56
2022/05/23 05:30:41;;;;;;;0.82;0.35;;;24.90;49.50;;;;;;5047532;28;20563;-50
2022/05/23 05:33:13;;;;;;;1.90;0.28;;;24.90;49.60;;;;;;5047399;28;20058;-57
2022/05/23 05:35:48;;;;;;;0.28;0.10;;;24.90;49.70;;;;;;5072916;28;20507;-58
2022/05/23 05:38:20;;;;;;;2.25;0.20;;;24.90;49.70;;;;;;5068234;28;20102;-57
2022/05/23 05:40:52;;;;;;;1.17;0.10;;;24.90;49.80;;;;;;5044248;28;20524;-58
2022/05/23 05:43:25;;;;;;;0.50;0.40;;;24.90;49.90;;;;;;5043563;28;20037;-56
2022/05/23 05:45:58;;;;;;;3.25;0.40;;;24.90;50.10;;;;;;5047694;28;20048;-59
2022/05/23 05:48:45;;;;;;;0.20;0.15;;;24.90;50.20;;;;;;5046557;28;20044;-58
2022/05/23 05:51:17;;;;;;;2.10;0.30;;;24.90;50.30;;;;;;5062819;28;20041;-58
2022/05/23 05:54:05;;;;;;;0.55;0.40;;;24.80;50.40;;;;;;5071307;28;20463;-59
2022/05/23 05:56:43;;;;;;;1.65;0.22;;;24.80;50.30;;;;;;5068579;28;20135;-58
2022/05/23 05:59:10;;;;;;;5.93;0.20;;;24.80;50.30;;;;;;5085202;28;20105;-60
2022/05/23 06:01:44;;;;;;;2.80;0.40;;;24.80;50.40;;;;;;5104111;28;20043;-57
2022/05/23 06:04:14;;;;;;;0.40;0.40;;;24.80;50.50;;;;;;5102915;28;20875;-58
2022/05/23 06:12:22;;;;;;;1.88;0.30;;;24.80;50.60;;;;;;5124469;27;20039;-59
2022/05/23 06:14:59;;;;;;;0.88;0.40;;;24.70;50.70;;;;;;5094910;28;20047;-60
2022/05/23 06:17:26;;;;;;;2.28;0.20;;;24.70;50.90;;;;;;5112292;27;20047;-60
2022/05/23 06:19:56;;;;;;;1.00;0.40;;;24.70;51.00;;;;;;5107590;27;20044;-58
2022/05/23 06:22:27;;;;;;;1.40;0.40;;;24.70;51.10;;;;;;5099588;27;20047;-59
2022/05/23 06:25:05;;;;;;;0.28;0.20;;;24.60;51.20;;;;;;5110853;27;20040;-59
2022/05/23 06:27:33;;;;;;;2.47;0.20;;;24.60;51.30;;;;;;5092807;27;20043;-59
2022/05/23 06:30:07;;;;;;;1.05;0.13;;;24.60;51.40;;;;;;5121638;27;20074;-60
2022/05/23 06:32:57;;;;;;;2.47;0.13;;;24.60;51.50;;;;;;5127341;27;20055;-59
2022/05/23 06:35:39;;;;;;;2.10;0.20;;;24.60;51.50;;;;;;5111250;27;20043;-57
2022/05/23 06:38:08;;;;;;;0.20;0.20;;;24.70;51.70;;;;;;5122181;27;20044;-58
2022/05/23 06:40:55;;;;;;;2.42;0.13;;;24.70;51.70;;;;;;5107041;27;20040;-58
2022/05/23 06:43:51;;;;;;;0.88;0.75;;;24.70;51.80;;;;;;5113183;27;20177;-58
2022/05/23 06:46:22;;;;;;;2.35;0.20;;;24.70;51.70;;;;;;5105010;27;20043;-58
2022/05/23 06:49:08;;;;;;;1.30;0.17;;;24.70;51.80;;;;;;5121586;27;20048;-59
2022/05/23 06:51:52;;;;;;;1.85;0.10;;;24.70;51.80;;;;;;5123012;27;20246;-58
2022/05/23 06:54:24;;;;;;;4.45;0.20;;;24.70;52.00;;;;;;5093743;27;20473;-59
2022/05/23 06:57:06;;;;;;;2.95;0.17;;;24.70;52.10;;;;;;5085214;28;20041;-57
2022/05/23 06:59:35;;;;;;;2.38;0.47;;;24.60;52.20;;;;;;5104899;28;20071;-59
2022/05/23 07:02:03;;;;;;;5.85;0.50;;;24.60;52.30;;;;;;5091307;28;20546;-59
2022/05/23 07:14:20;;;;;;;14.88;0.75;;;24.80;52.20;;;;;;5085809;28;20040;-54
2022/05/23 07:16:50;;;;;;;5.97;0.52;;;24.90;52.10;;;;;;5091214;28;20423;-55
2022/05/23 07:19:26;;;;;;;2.00;0.30;;;25.00;52.00;;;;;;5089183;28;20039;-50
2022/05/23 07:22:02;;;;;;;4.60;0.52;;;25.10;52.10;;;;;;5093138;28;20107;-48
2022/05/23 07:24:36;;;;;;;8.15;0.45;;;25.20;52.00;;;;;;5093794;28;20414;-51
2022/05/23 07:27:12;;;;;;;7.03;0.20;;;25.30;52.00;;;;;;5071062;28;20047;-50
2022/05/23 07:29:40;;;;;;;11.70;0.65;;;25.40;52.00;;;;;;5103540;28;20043;-48
2022/05/23 07:32:12;;;;;;;5.03;0.43;;;25.50;51.90;;;;;;5100292;28;20046;-50
2022/05/23 07:34:40;;;;;;;8.13;0.85;;;25.50;51.70;;;;;;5094694;28;20039;-52
2022/05/23 07:37:08;;;;;;;4.95;0.28;;;25.50;51.50;;;;;;5117467;28;20530;-53
2022/05/23 07:39:37;;;;;;;0.77;0.32;;;25.70;51.50;;;;;;5088589;28;20124;-52
2022/05/23 07:42:13;;;;;;;3.20;0.10;;;25.70;51.40;;;;;;5101778;28;20121;-51
2022/05/23 07:44:41;;;;;;;3.72;1.13;;;25.70;51.20;;;;;;5101204;28;20086;-49
2022/05/23 07:47:14;;;;;;;1.85;0.20;;;25.70;51.10;;;;;;5091397;28;20096;-48
2022/05/23 07:49:51;;;;;;;4.13;0.10;;;25.80;51.00;;;;;;5093644;28;20047;-51
2022/05/23 07:52:21;;;;;;;7.20;0.98;;;25.80;50.80;;;;;;5093448;28;20038;-61
2022/05/23 08:00:33;;;;;;;3.83;0.30;;;26.00;50.60;;;;;;5090200;28;20039;-50
2022/05/23 08:03:16;;;;;;;5.38;0.20;;;26.00;50.40;;;;;;5090837;28;20436;-50
2022/05/23 08:05:46;;;;;;;2.33;0.40;;;26.10;50.30;;;;;;5091748;28;20056;-48
2022/05/23 08:08:16;;;;;;;1.50;0.73;;;26.10;50.20;;;;;;5090214;28;20078;-47
2022/05/23 08:10:44;;;;;;;0.20;0.10;;;26.20;50.10;;;;;;5089721;28;20036;-50
2022/05/23 08:13:13;;;;;;;2.22;0.25;;;26.20;50.00;;;;;;5090085;28;20039;-49
2022/05/23 08:15:43;;;;;;;1.02;0.20;;;26.30;49.90;;;;;;5089396;28;20070;-49
2022/05/23 08:18:17;;;;;;;1.70;0.52;;;26.30;49.80;;;;;;5090172;28;20048;-49
2022/05/23 08:20:52;;;;;;;1.95;0.20;;;26.30;49.70;;;;;;5108280;28;20043;-51
2022/05/23 08:23:24;;;;;;;0.88;0.30;;;26.30;49.60;;;;;;5089450;28;20040;-54
2022/05/23 08:26:15;;;;;;;2.45;0.10;;;26.30;49.60;;;;;;5089146;28;20055;-50
2022/05/23 08:28:49;;;;;;;1.55;0.65;;;26.30;49.60;;;;;;5089404;28;20036;-50
2022/05/23 08:31:19;;;;;;;4.60;0.25;;;26.30;49.50;;;;;;5088877;28;20047;-49
2022/05/23 08:34:00;;;;;;;0.52;0.20;;;26.40;49.60;;;;;;5089231;28;20517;-52
2022/05/23 08:36:30;;;;;;;2.05;0.20;;;26.40;50.20;;;;;;5088231;28;20043;-49
2022/05/23 08:38:58;;;;;;;0.40;0.25;;;26.40;49.50;;;;;;5090577;28;20043;-47
2022/05/23 08:41:36;;;;;;;1.85;0.10;;;26.40;49.50;;;;;;5089252;28;20039;-50
2022/05/23 08:44:17;;;;;;;2.60;0.13;;;26.40;49.40;;;;;;5088798;28;20043;-52
2022/05/23 08:47:02;;;;;;;1.85;0.10;;;26.40;49.40;;;;;;5087429;28;20511;-50
2022/05/23 08:49:44;;;;;;;0.82;0.10;;;26.50;49.50;;;;;;5088842;28;20055;-48
2022/05/23 08:52:18;;;;;;;2.90;0.47;;;26.50;49.40;;;;;;5082962;28;20035;-51
2022/05/23 08:54:55;;;;;;;2.95;0.13;;;26.50;49.40;;;;;;5108947;27;20047;-52
2022/05/23 08:57:36;;;;;;;2.05;0.10;;;26.50;49.40;;;;;;5127205;27;20046;-49
2022/05/23 09:00:11;;;;;;;0.15;0.10;;;26.50;49.30;;;;;;5121442;27;20075;-49
2022/05/23 09:02:47;;;;;;;0.30;0.20;;;26.50;49.30;;;;;;5127101;27;20042;-50
2022/05/23 09:05:38;;;;;;;0.77;0.10;;;26.50;49.30;;;;;;5127078;27;20067;-49
2022/05/23 09:08:09;;;;;;;0.63;0.30;;;26.50;49.30;;;;;;5126185;27;20586;-51
2022/05/23 09:10:41;;;;;;;0.20;0.10;;;26.60;49.30;;;;;;5127225;27;20135;-47
2022/05/23 09:13:10;;;;;;;1.55;0.10;;;26.60;49.30;;;;;;5126630;27;20045;-47
2022/05/23 09:15:39;;;;;;;2.70;0.10;;;26.60;49.30;;;;;;5127474;27;20122;-49
2022/05/23 09:18:12;;;;;;;0.73;0.20;;;26.60;49.20;;;;;;5128422;27;20031;-50
2022/05/23 09:20:43;;;;;;;0.63;0.10;;;26.60;49.20;;;;;;5127816;27;20479;-50
2022/05/23 09:23:13;;;;;;;0.20;0.20;;;26.60;49.20;;;;;;5126662;27;20071;-51
2022/05/23 09:25:41;;;;;;;2.85;0.10;;;26.60;49.20;;;;;;5127044;27;20747;-48
2022/05/23 09:28:16;;;;;;;0.63;0.10;;;26.70;49.20;;;;;;5127078;27;20418;-48
2022/05/23 09:30:49;;;;;;;0.38;0.32;;;26.70;49.10;;;;;;5126405;27;20046;-49
2022/05/23 09:33:19;;;;;;;0.35;0.22;;;26.70;49.10;;;;;;5126953;27;20125;-49
2022/05/23 09:35:53;;;;;;;0.93;0.10;;;26.70;49.00;;;;;;5126713;27;20043;-49
2022/05/23 09:38:25;;;;;;;0.70;0.20;;;26.80;49.00;;;;;;5126382;27;20039;-49
2022/05/23 09:41:04;;;;;;;2.55;0.63;;;26.80;48.90;;;;;;5114872;27;20039;-51
2022/05/23 09:49:13;;;;;;;0.20;0.10;;;26.80;48.70;;;;;;5125353;27;20050;-50
2022/05/23 09:51:54;;;;;;;1.65;0.20;;;26.90;48.80;;;;;;5126310;27;20035;-50
2022/05/23 09:54:26;;;;;;;2.17;0.20;;;26.90;48.70;;;;;;5124585;27;20100;-49
2022/05/23 09:56:54;;;;;;;0.28;0.10;;;26.90;48.70;;;;;;5111348;28;20070;-49
2022/05/23 09:59:25;;;;;;;0.85;0.13;;;26.90;48.60;;;;;;5110657;28;20042;-51
2022/05/23 10:01:54;;;;;;;0.32;0.20;;;26.90;48.70;;;;;;5093878;28;20047;-50
2022/05/23 10:04:26;;;;;;;1.00;0.45;;;26.90;48.60;;;;;;5120087;28;20472;-52
2022/05/23 10:06:53;;;;;;;0.20;0.20;;;26.90;49.20;;;;;;5108661;28;20043;-49
2022/05/23 10:09:31;;;;;;;0.68;0.20;;;26.90;48.60;;;;;;5109281;28;20052;-50
2022/05/23 10:12:22;;;;;;;1.30;0.10;;;26.90;48.60;;;;;;5119530;28;20130;-52
2022/05/23 10:14:52;;;;;;;0.30;0.10;;;26.90;48.60;;;;;;5107956;28;20071;-53
2022/05/23 10:17:30;;;;;;;1.00;0.10;;;26.90;48.60;;;;;;5106817;28;20054;-50
2022/05/23 10:20:30;;;;;;;1.33;0.10;;;26.90;48.60;;;;;;5113390;28;20044;-52
2022/05/23 10:23:00;;;;;;;0.30;0.10;;;27.00;48.60;;;;;;5114619;28;20051;-51
2022/05/23 10:25:33;;;;;;;0.73;0.20;;;26.90;48.60;;;;;;5111394;28;20035;-51
2022/05/23 10:28:06;;;;;;;0.50;0.10;;;26.90;48.50;;;;;;5106359;28;20120;-50
2022/05/23 10:30:37;;;;;;;0.60;0.28;;;26.90;48.50;;;;;;5122013;28;20050;-48
2022/05/23 10:33:10;;;;;;;0.30;0.10;;;26.90;48.40;;;;;;5090488;28;20080;-50
2022/05/23 10:35:42;;;;;;;0.20;0.10;;;26.90;48.40;;;;;;5111478;28;20042;-50
2022/05/23 10:43:53;;;;;;;0.95;0.10;;;26.90;48.40;;;;;;5110357;28;20085;-50
2022/05/23 10:46:22;;;;;;;0.57;0.20;;;26.90;48.50;;;;;;5106395;28;20515;-49
2022/05/23 10:48:59;;;;;;;0.40;0.20;;;26.90;48.50;;;;;;5107695;28;20050;-49
2022/05/23 10:51:35;;;;;;;3.22;0.28;;;26.90;48.50;;;;;;5103134;28;26465;-52
2022/05/23 10:54:37;;;;;;;0.47;0.47;;;26.90;48.50;;;;;;5120704;27;20105;-49
2022/05/23 10:57:17;;;;;;;0.10;0.10;;;26.90;48.50;;;;;;5115846;27;20508;-49
2022/05/23 10:59:53;;;;;;;0.60;0.40;;;26.90;48.60;;;;;;5115549;27;20048;-51
2022/05/23 11:02:33;;;;;;;0.35;0.20;;;26.80;48.60;;;;;;5119573;27;20039;-49
2022/05/23 11:05:13;;;;;;;0.30;0.10;;;26.80;48.60;;;;;;5117475;27;20070;-52
2022/05/23 11:07:51;;;;;;;1.50;0.30;;;26.80;48.60;;;;;;5109712;28;20047;-50
2022/05/23 11:10:26;;;;;;;0.60;0.20;;;26.80;48.70;;;;;;5102718;28;20096;-50
2022/05/23 11:13:06;;;;;;;0.65;0.22;;;26.80;48.70;;;;;;5111126;27;20032;-52
2022/05/23 11:16:01;;;;;;;0.82;0.30;;;26.80;48.80;;;;;;5109611;27;20100;-48
2022/05/23 11:18:41;;;;;;;0.20;0.20;;;26.80;48.80;;;;;;5110636;27;20104;-52
2022/05/23 11:21:13;;;;;;;1.52;0.20;;;26.70;48.80;;;;;;5126190;27;20055;-49
2022/05/23 11:23:54;;;;;;;0.90;0.20;;;26.70;48.80;;;;;;5113570;27;20046;-51
2022/05/23 11:26:25;;;;;;;1.75;0.10;;;26.70;48.80;;;;;;5113249;27;20051;-50
2022/05/23 11:34:35;;;;;;;0.65;0.28;;;26.70;49.00;;;;;;5113070;27;20043;-51
2022/05/23 11:37:42;;;;;;;1.17;0.28;;;26.80;49.20;;;;;;5108907;28;20044;-50
2022/05/23 11:40:01;;;;;;;;;;;26.80;49.70;;;;;;5106769;27;20027;-48
2022/05/23 11:42:43;;;;;;;0.30;0.20;;;26.80;49.00;;;;;;5089071;27;19930;-51
2022/05/23 11:48:40;;;;;;;0.50;0.40;;;26.80;48.90;;;;;;5106550;27;20047;-49
2022/05/23 11:51:16;;;;;;;0.20;0.10;;;26.80;48.90;;;;;;5090059;28;20128;-54
2022/05/23 11:53:56;;;;;;;0.30;0.30;;;26.80;49.00;;;;;;5122611;27;20579;-48
2022/05/23 11:56:35;;;;;;;0.93;0.32;;;26.80;49.00;;;;;;5113985;27;20073;-52
2022/05/23 11:59:04;;;;;;;0.32;0.28;;;26.80;48.90;;;;;;5108650;27;20059;-49
2022/05/23 12:01:32;;;;;;;0.20;0.20;;;26.80;49.00;;;;;;5111092;27;20491;-50
2022/05/23 12:04:20;;;;;;;1.80;0.30;;;26.80;49.00;;;;;;5123522;27;20039;-50
2022/05/23 12:06:50;;;;;;;0.75;0.28;;;26.80;48.90;;;;;;5106406;28;20868;-51
2022/05/23 12:09:33;;;;;;;0.20;0.20;;;26.80;49.00;;;;;;5108824;28;20039;-50
2022/05/23 12:12:47;;;;;;;0.30;0.20;;;26.80;49.00;;;;;;5124606;27;20511;-50
2022/05/23 12:15:50;;;;;;;0.20;0.20;;;26.80;49.00;;;;;;5105633;28;20044;-50
2022/05/23 12:18:36;;;;;;;0.43;0.20;;;26.80;49.10;;;;;;5107295;27;20484;-51
2022/05/23 12:21:06;;;;;;;0.20;0.10;;;26.70;49.20;;;;;;5120875;27;20043;-50
2022/05/23 12:23:39;;;;;;;1.70;0.20;;;26.70;49.30;;;;;;5113086;27;20138;-50
2022/05/23 12:26:25;;;;;;;0.40;0.20;;;26.70;49.30;;;;;;5112233;27;20050;-53
2022/05/23 12:28:54;;;;;;;0.80;0.28;;;26.70;49.30;;;;;;5113094;27;20047;-53
2022/05/23 12:31:25;;;;;;;0.73;0.30;;;26.70;49.40;;;;;;5120715;27;20118;-51
2022/05/23 12:34:09;;;;;;;0.30;0.10;;;26.70;49.40;;;;;;5110026;27;20043;-50
2022/05/23 12:36:41;;;;;;;0.77;0.20;;;26.70;49.40;;;;;;5101436;27;20039;-51
2022/05/23 12:39:51;;;;;;;0.98;0.98;;;26.70;49.50;;;;;;5122315;27;20491;-49
2022/05/23 12:42:35;;;;;;;0.60;0.32;;;26.70;49.40;;;;;;5077560;28;20488;-49
2022/05/23 12:45:40;;;;;;;0.43;0.22;;;26.70;49.40;;;;;;5124418;27;20129;-48
2022/05/23 12:48:36;;;;;;;0.77;0.15;;;26.70;49.40;;;;;;5096033;28;20036;-49
2022/05/23 12:51:20;;;;;;;0.60;0.30;;;26.70;49.40;;;;;;5113689;27;20065;-57
2022/05/23 12:54:09;;;;;;;0.88;0.30;;;26.70;49.50;;;;;;5122268;27;20535;-52
2022/05/23 12:56:57;;;;;;;0.20;0.10;;;26.70;49.40;;;;;;5120234;27;20112;-47
2022/05/23 12:59:48;;;;;;;1.23;0.20;;;26.70;49.40;;;;;;5106075;28;20049;-50
2022/05/23 13:02:24;;;;;;;1.15;0.10;;;26.80;49.30;;;;;;5115601;27;20042;-49
2022/05/23 13:04:53;;;;;;;;;;;26.80;49.40;;;;;;5114703;27;20071;-50
2022/05/23 13:07:26;;;;;;;1.45;0.20;;;26.70;49.20;;;;;;5111762;27;19923;-52
2022/05/23 13:09:57;;;;;;;0.10;0.10;;;26.70;49.40;;;;;;5089481;27;20134;-49
2022/05/23 13:12:30;;;;;;;0.63;0.32;;;26.80;49.40;;;;;;5122774;27;20076;-48
2022/05/23 13:15:01;;;;;;;0.43;0.20;;;26.80;49.30;;;;;;5123698;27;20043;-51
2022/05/23 13:17:46;;;;;;;0.10;0.10;;;26.90;49.30;;;;;;5111350;27;20039;-53
2022/05/23 13:23:15;;;;;;;0.32;0.10;;;27.00;49.70;;;;;;5113927;27;20039;-52
2022/05/23 13:25:43;;;;;;;0.90;0.32;;;27.10;49.00;;;;;;5111438;27;20040;-53
2022/05/23 13:28:12;;;;;;;0.20;0.15;;;27.10;48.90;;;;;;5106831;28;20062;-49
2022/05/23 13:30:46;;;;;;;0.20;0.17;;;27.20;48.90;;;;;;5104923;28;20092;-48
2022/05/23 13:33:16;;;;;;;0.10;0.10;;;27.20;48.70;;;;;;5110509;27;20824;-51
2022/05/23 13:35:45;;;;;;;0.20;0.10;;;27.30;48.60;;;;;;5120375;27;20088;-47
2022/05/23 13:38:22;;;;;;;0.82;0.10;;;27.30;48.50;;;;;;5113381;27;20044;-47
2022/05/23 13:40:52;;;;;;;0.40;0.10;;;27.40;48.50;;;;;;5110648;27;20116;-50
2022/05/23 13:43:23;;;;;;;0.10;0.10;;;27.40;48.40;;;;;;5107216;27;20096;-49
2022/05/23 13:46:01;;;;;;;0.10;0.10;;;27.40;48.30;;;;;;5121394;27;20039;-49
2022/05/23 13:48:39;;;;;;;0.28;0.10;;;27.50;48.20;;;;;;5120789;27;20226;-50
2022/05/23 13:51:14;;;;;;;0.93;0.10;;;27.50;48.20;;;;;;5105290;28;20379;-50
2022/05/23 13:53:46;;;;;;;0.28;0.10;;;27.60;48.10;;;;;;5119431;27;20066;-48
2022/05/23 13:56:14;;;;;;;1.08;0.10;;;27.60;48.00;;;;;;5112969;28;20444;-48
2022/05/23 13:58:47;;;;;;;0.40;0.10;;;27.60;47.80;;;;;;5088309;28;20142;-48
2022/05/23 14:01:22;;;;;;;1.73;0.20;;;27.70;47.80;;;;;;5106949;28;20538;-49
2022/05/23 14:03:55;;;;;;;0.37;0.10;;;27.70;47.70;;;;;;5101772;28;20040;-52
2022/05/23 14:06:27;;;;;;;0.30;0.10;;;27.70;47.60;;;;;;5108984;28;20515;-49
2022/05/23 14:08:58;;;;;;;0.32;0.10;;;27.70;47.50;;;;;;5092867;28;20131;-48
2022/05/23 14:11:29;;;;;;;0.10;0.10;;;27.80;47.50;;;;;;5115991;28;20054;-52
2022/05/23 14:14:14;;;;;;;0.57;0.10;;;27.80;47.50;;;;;;5110460;28;20051;-51
2022/05/23 14:16:54;;;;;;;0.33;0.30;;;27.80;47.40;;;;;;5110517;28;20048;-50
2022/05/23 14:19:24;;;;;;;0.10;0.10;;;27.80;47.40;;;;;;5107276;28;20044;-51
2022/05/23 14:22:05;;;;;;;0.10;0.10;;;27.80;47.40;;;;;;5121963;28;20044;-51
2022/05/23 14:24:40;;;;;;;0.10;0.10;;;27.90;48.00;;;;;;5106586;28;20088;-49
2022/05/23 14:27:19;;;;;;;0.28;0.10;;;27.90;47.30;;;;;;5123144;28;20082;-48